Time;durP1;ratioP1;P1;durP2;ratioP2;P2;SDS_P1;SDS_P2;PMS_P1;PMS_P2;Temp;Humidity;BMP_temperature;BMP_pressure;BME280_temperature;BME280_humidity;BME280_pressure;Samples;Min_cycle;Max_cycle;Signal;HPM_P1;HPM_P2
2021/09/15 00:00:15;;;;;;;13.48;12.07;;;20.10;90.10;;;;;;4899114;29;20060;-87
2021/09/15 00:02:40;;;;;;;13.63;12.23;;;20.10;89.80;;;;;;4899354;29;20147;-87
2021/09/15 00:05:07;;;;;;;15.18;13.18;;;20.10;89.80;;;;;;4883001;29;20127;-87
2021/09/15 00:07:33;;;;;;;12.98;11.68;;;20.10;89.80;;;;;;4898584;29;20076;-87
2021/09/15 00:09:59;;;;;;;13.73;12.27;;;20.00;90.00;;;;;;4882615;29;20159;-87
2021/09/15 00:12:25;;;;;;;13.18;11.82;;;20.00;90.00;;;;;;4882994;29;20049;-87
2021/09/15 00:14:50;;;;;;;13.43;12.05;;;20.00;90.10;;;;;;4878658;29;20053;-86
2021/09/15 00:17:16;;;;;;;18.70;16.13;;;20.00;90.10;;;;;;4864335;29;20131;-87
2021/09/15 00:19:42;;;;;;;13.77;12.32;;;20.00;90.10;;;;;;4863961;29;20055;-87
2021/09/15 00:22:07;;;;;;;13.02;11.73;;;20.00;89.90;;;;;;4880075;29;20375;-87
2021/09/15 00:24:33;;;;;;;12.88;11.50;;;20.00;90.10;;;;;;4863783;29;20065;-86
2021/09/15 00:26:58;;;;;;;13.13;11.73;;;19.90;90.00;;;;;;4897649;29;20060;-87
2021/09/15 00:29:24;;;;;;;17.38;14.82;;;19.90;90.00;;;;;;4881862;29;20048;-87
2021/09/15 00:31:49;;;;;;;14.20;12.75;;;19.90;90.00;;;;;;4882673;29;20084;-87
2021/09/15 00:34:15;;;;;;;13.20;11.80;;;19.90;89.80;;;;;;4892447;29;20489;-87
2021/09/15 00:36:40;;;;;;;13.77;12.43;;;19.90;90.00;;;;;;4864592;29;20429;-87
2021/09/15 00:39:06;;;;;;;13.40;12.02;;;19.90;90.00;;;;;;4881116;29;20091;-87
2021/09/15 00:41:32;;;;;;;18.05;15.82;;;19.80;90.00;;;;;;4863547;29;20060;-88
2021/09/15 00:44:04;;;;;;;13.63;12.13;;;19.80;90.20;;;;;;4864533;29;20051;-87
2021/09/15 00:46:30;;;;;;;12.73;11.45;;;19.80;90.20;;;;;;4864238;29;20057;-87
2021/09/15 00:48:56;;;;;;;13.82;12.35;;;19.70;90.10;;;;;;4864004;29;20117;-87
2021/09/15 00:51:22;;;;;;;20.40;15.50;;;19.70;90.10;;;;;;4865023;29;20061;-87
2021/09/15 00:53:48;;;;;;;13.02;11.73;;;19.70;90.20;;;;;;4864971;29;20319;-87
2021/09/15 00:56:14;;;;;;;14.05;12.65;;;19.70;90.10;;;;;;4881217;29;20096;-87
2021/09/15 00:58:39;;;;;;;16.30;13.85;;;19.70;90.00;;;;;;4881333;29;20049;-87
2021/09/15 01:01:05;;;;;;;13.65;12.20;;;19.60;90.20;;;;;;4881266;29;20135;-87
2021/09/15 01:03:31;;;;;;;13.40;12.00;;;19.70;90.00;;;;;;4862821;29;20401;-87
2021/09/15 01:05:59;;;;;;;17.20;15.25;;;19.60;90.10;;;;;;4864026;29;20053;-87
2021/09/15 01:08:28;;;;;;;18.70;16.73;;;19.60;90.20;;;;;;4879668;29;20130;-87
2021/09/15 01:10:54;;;;;;;14.40;12.98;;;19.60;90.30;;;;;;4864751;29;20045;-87
2021/09/15 01:13:20;;;;;;;13.85;12.43;;;19.60;90.20;;;;;;4863790;29;20057;-87
2021/09/15 01:15:46;;;;;;;14.93;13.43;;;19.50;90.30;;;;;;4869910;29;20378;-87
2021/09/15 01:18:19;;;;;;;14.05;12.57;;;19.50;90.00;;;;;;4869064;29;20045;-87
2021/09/15 01:20:45;;;;;;;;;;;19.50;90.00;;;;;;4872062;29;20056;-86
2021/09/15 01:23:11;;;;;;;12.88;11.57;;;19.40;89.10;;;;;;4872201;29;20014;-85
2021/09/15 01:25:36;;;;;;;14.13;12.73;;;19.40;90.00;;;;;;4870553;29;20085;-86
2021/09/15 01:28:03;;;;;;;14.32;11.80;;;19.40;90.20;;;;;;4870947;29;20049;-86
2021/09/15 01:37:05;;;;;;;13.18;11.82;;;19.30;89.70;;;;;;4868821;29;20403;-86
2021/09/15 01:39:38;;;;;;;13.93;12.52;;;19.30;90.10;;;;;;4862544;29;20061;-88
2021/09/15 01:42:13;;;;;;;13.88;12.48;;;19.30;90.10;;;;;;4863773;29;20394;-87
2021/09/15 01:44:46;;;;;;;17.65;15.32;;;19.20;89.70;;;;;;4862607;29;20505;-88
2021/09/15 01:47:21;;;;;;;;;;;19.20;90.10;;;;;;4861847;29;20041;-85
2021/09/15 01:49:52;;;;;;;16.80;15.00;;;19.20;89.60;;;;;;4863313;29;19991;-86
2021/09/15 01:52:35;;;;;;;14.23;12.73;;;19.20;90.10;;;;;;4863563;29;20041;-86
2021/09/15 01:55:07;;;;;;;13.50;12.10;;;19.20;90.20;;;;;;4864293;29;20064;-86
2021/09/15 01:57:40;;;;;;;17.03;15.23;;;19.20;90.30;;;;;;4863985;29;20409;-86
2021/09/15 02:00:09;;;;;;;;;;;19.20;90.30;;;;;;4864457;29;20056;-85
2021/09/15 02:02:42;;;;;;;15.20;13.38;;;19.10;89.60;;;;;;4880534;29;19978;-86
2021/09/15 02:05:13;;;;;;;19.30;17.27;;;19.10;90.50;;;;;;4881175;29;20395;-88
2021/09/15 02:22:44;;;;;;;19.40;17.30;;;19.00;91.10;;;;;;4809113;29;20047;-87
2021/09/15 02:25:16;;;;;;;22.75;20.40;;;19.00;91.20;;;;;;4808424;29;20067;-87
2021/09/15 02:27:47;;;;;;;28.92;24.58;;;18.90;91.30;;;;;;4792584;29;20065;-89
2021/09/15 02:30:16;;;;;;;18.60;16.60;;;19.00;91.70;;;;;;4793990;29;20051;-88
2021/09/15 02:32:41;;;;;;;26.48;23.70;;;19.00;91.50;;;;;;4861331;29;20057;-88
2021/09/15 02:35:07;;;;;;;19.00;16.98;;;18.90;91.80;;;;;;4883818;29;20129;-87
2021/09/15 02:37:33;;;;;;;27.25;24.15;;;19.00;91.30;;;;;;4866686;29;20052;-88
2021/09/15 02:40:29;;;;;;;32.17;25.98;;;19.00;91.90;;;;;;4867223;29;20048;-88
2021/09/15 02:42:58;;;;;;;20.13;18.13;;;18.90;92.10;;;;;;4866407;29;20049;-87
2021/09/15 02:45:30;;;;;;;18.55;16.63;;;18.90;91.80;;;;;;4867770;29;20045;-88
2021/09/15 02:47:58;;;;;;;20.02;17.33;;;18.90;91.60;;;;;;4866490;29;20049;-88
2021/09/15 02:50:33;;;;;;;20.88;18.75;;;18.80;91.40;;;;;;4867558;29;20398;-87
2021/09/15 02:52:59;;;;;;;27.60;24.67;;;18.80;91.30;;;;;;4882352;29;20370;-87
2021/09/15 02:55:25;;;;;;;24.02;21.27;;;18.80;91.80;;;;;;4866344;29;20073;-87
2021/09/15 02:57:54;;;;;;;20.38;17.35;;;18.80;91.70;;;;;;4866074;29;20053;-88
2021/09/15 03:00:23;;;;;;;19.83;17.85;;;18.80;91.40;;;;;;4866608;29;20045;-87
2021/09/15 03:18:02;;;;;;;17.35;15.55;;;18.60;90.70;;;;;;4683274;30;20065;-87
2021/09/15 03:20:40;;;;;;;17.98;16.08;;;18.60;91.00;;;;;;4670802;30;20503;-88
2021/09/15 03:23:14;;;;;;;17.98;16.17;;;18.60;90.90;;;;;;4704024;30;20123;-88
2021/09/15 03:25:58;;;;;;;18.98;16.92;;;18.60;91.10;;;;;;4797321;29;20446;-87
2021/09/15 03:28:29;;;;;;;17.38;15.68;;;18.60;91.00;;;;;;4865939;29;20061;-87
2021/09/15 03:31:01;;;;;;;18.00;15.85;;;18.60;91.00;;;;;;4865562;29;20045;-87
2021/09/15 03:33:33;;;;;;;20.15;16.30;;;18.60;91.00;;;;;;4866145;29;20068;-87
2021/09/15 03:36:06;;;;;;;27.13;23.30;;;18.60;91.10;;;;;;4866728;29;20045;-87
2021/09/15 03:38:37;;;;;;;18.90;16.15;;;18.60;91.20;;;;;;4865845;29;20048;-87
2021/09/15 03:41:14;;;;;;;18.40;16.50;;;18.50;90.90;;;;;;4866469;29;20049;-87
2021/09/15 03:43:44;;;;;;;17.65;15.73;;;18.50;91.00;;;;;;4866688;29;20041;-87
2021/09/15 03:46:09;;;;;;;18.35;15.95;;;18.50;90.90;;;;;;4866398;29;20109;-88
2021/09/15 03:48:35;;;;;;;19.33;16.52;;;18.50;90.90;;;;;;4865545;29;20053;-87
2021/09/15 03:51:01;;;;;;;17.40;15.57;;;18.50;91.10;;;;;;4865418;29;20037;-88
2021/09/15 03:53:26;;;;;;;29.33;23.77;;;18.50;90.80;;;;;;4881800;29;20446;-87
2021/09/15 03:55:52;;;;;;;18.65;16.75;;;18.50;91.10;;;;;;4866229;29;20041;-87
2021/09/15 03:58:17;;;;;;;18.90;16.90;;;18.50;91.20;;;;;;4865199;29;20049;-87
2021/09/15 04:00:43;;;;;;;18.60;16.67;;;18.40;91.20;;;;;;4865421;29;20500;-86
2021/09/15 04:03:09;;;;;;;17.75;15.95;;;18.40;91.10;;;;;;4866664;29;20113;-87
2021/09/15 04:05:34;;;;;;;19.60;17.52;;;18.40;90.90;;;;;;4865796;29;20041;-86
2021/09/15 04:08:00;;;;;;;20.60;18.25;;;18.40;91.20;;;;;;4866485;29;20045;-86
2021/09/15 04:10:26;;;;;;;19.63;17.60;;;18.40;91.40;;;;;;4865175;29;20045;-87
2021/09/15 04:16:32;;;;;;;19.38;17.38;;;18.30;91.20;;;;;;4823648;29;20057;-86
2021/09/15 04:18:57;;;;;;;19.92;17.55;;;18.30;91.30;;;;;;4810308;29;20136;-87
2021/09/15 04:21:23;;;;;;;23.90;21.35;;;18.30;91.40;;;;;;4809066;29;20046;-87
2021/09/15 04:32:06;;;;;;;32.78;27.30;;;18.30;92.00;;;;;;4865503;29;20432;-87
2021/09/15 04:34:32;;;;;;;22.13;19.80;;;18.20;92.20;;;;;;4864170;29;20047;-87
2021/09/15 04:36:57;;;;;;;21.55;19.35;;;18.20;92.10;;;;;;4865264;29;20075;-87
2021/09/15 04:39:23;;;;;;;20.90;18.70;;;18.20;91.90;;;;;;4882057;29;20044;-87
2021/09/15 04:41:49;;;;;;;32.30;27.98;;;18.20;91.90;;;;;;4881200;29;20048;-87
2021/09/15 04:44:14;;;;;;;20.70;18.52;;;18.20;92.20;;;;;;4864667;29;20413;-86
2021/09/15 04:46:40;;;;;;;21.77;19.52;;;18.20;91.90;;;;;;4881717;29;20049;-86
2021/09/15 04:49:05;;;;;;;20.48;18.25;;;18.10;91.90;;;;;;4881112;29;20052;-87
2021/09/15 04:51:31;;;;;;;29.27;26.08;;;18.10;91.70;;;;;;4881441;29;20434;-86
2021/09/15 04:53:56;;;;;;;20.33;18.27;;;18.10;91.90;;;;;;4865027;29;20128;-87
2021/09/15 04:56:22;;;;;;;22.35;20.05;;;18.10;91.70;;;;;;4864200;29;20064;-87
2021/09/15 04:58:47;;;;;;;21.92;19.70;;;18.10;92.00;;;;;;4881205;29;20119;-86
2021/09/15 05:01:13;;;;;;;22.27;19.95;;;18.10;92.00;;;;;;4869056;29;20085;-88
2021/09/15 05:03:39;;;;;;;21.10;18.88;;;18.10;92.10;;;;;;4871722;29;20055;-86
2021/09/15 05:06:04;;;;;;;21.73;19.50;;;18.00;91.90;;;;;;4872560;29;20170;-86
2021/09/15 05:08:30;;;;;;;21.73;19.42;;;18.00;91.90;;;;;;4871582;29;20075;-86
2021/09/15 05:10:55;;;;;;;22.35;19.95;;;18.00;91.90;;;;;;4872049;29;20041;-86
2021/09/15 05:13:21;;;;;;;19.90;17.90;;;18.00;91.90;;;;;;4874523;29;20091;-86
2021/09/15 05:15:46;;;;;;;22.73;20.33;;;18.00;91.60;;;;;;4888371;29;20401;-86
2021/09/15 05:18:12;;;;;;;24.15;21.70;;;18.00;91.50;;;;;;4875230;29;20075;-86
2021/09/15 05:20:38;;;;;;;23.80;21.30;;;18.00;91.40;;;;;;4873166;29;20446;-86
2021/09/15 05:23:03;;;;;;;20.83;18.67;;;18.00;91.30;;;;;;4870733;29;20128;-86
2021/09/15 05:25:29;;;;;;;21.77;19.58;;;18.00;91.70;;;;;;4864774;29;20573;-86
2021/09/15 05:27:55;;;;;;;26.02;22.70;;;17.90;91.70;;;;;;4880762;29;20405;-86
2021/09/15 05:30:21;;;;;;;22.83;20.45;;;18.00;91.50;;;;;;4863986;29;20379;-86
2021/09/15 05:32:47;;;;;;;27.30;22.42;;;18.00;91.40;;;;;;4873938;29;20048;-85
2021/09/15 05:35:14;;;;;;;24.75;22.13;;;18.00;91.60;;;;;;4898795;29;20229;-87
2021/09/15 05:37:40;;;;;;;39.47;29.90;;;18.00;91.40;;;;;;4897116;29;20378;-86
2021/09/15 05:40:06;;;;;;;36.60;28.58;;;18.00;92.00;;;;;;4871376;29;20044;-86
2021/09/15 05:42:32;;;;;;;46.38;35.58;;;18.00;92.20;;;;;;4886102;29;20044;-86
2021/09/15 05:45:01;;;;;;;25.30;21.95;;;18.00;93.00;;;;;;4887801;29;20041;-86
2021/09/15 05:47:28;;;;;;;31.63;26.27;;;18.00;92.00;;;;;;4872155;29;20055;-87
2021/09/15 05:49:53;;;;;;;42.40;34.55;;;18.00;92.10;;;;;;4867312;29;20107;-86
2021/09/15 05:52:19;;;;;;;25.90;22.75;;;18.00;92.70;;;;;;4869076;29;20109;-84
2021/09/15 05:54:44;;;;;;;27.58;24.10;;;18.00;92.60;;;;;;4879941;29;20108;-89
2021/09/15 05:57:10;;;;;;;36.70;29.48;;;18.00;92.20;;;;;;4867840;29;20056;-89
2021/09/15 06:03:30;;;;;;;;;;;;;;;;;;;;;
2021/09/15 06:06:57;;;;;;;30.98;27.10;;;18.00;92.80;;;;;;4816121;29;20057;-86
2021/09/15 06:09:30;;;;;;;40.95;32.65;;;18.10;92.90;;;;;;4862592;29;20048;-85
2021/09/15 06:12:10;;;;;;;34.05;28.48;;;18.10;93.30;;;;;;4879161;29;20052;-89
2021/09/15 06:14:45;;;;;;;49.63;40.35;;;18.10;93.60;;;;;;4863898;29;20053;-89
2021/09/15 06:17:22;;;;;;;52.20;41.15;;;18.20;94.40;;;;;;4861924;29;20140;-89
2021/09/15 06:19:48;;;;;;;41.42;33.83;;;18.20;95.00;;;;;;4861525;29;20618;-89
2021/09/15 06:22:17;;;;;;;44.95;35.53;;;18.20;94.70;;;;;;4862827;29;20136;-88
2021/09/15 06:53:02;;;;;;;48.83;37.70;;;18.30;95.50;;;;;;4850038;29;20112;-84
2021/09/15 06:59:46;;;;;;;60.92;44.70;;;18.30;95.40;;;;;;4832737;29;20074;-85
2021/09/15 07:02:17;;;;;;;58.50;42.13;;;18.30;95.80;;;;;;4857489;29;20050;-85
2021/09/15 07:05:10;;;;;;;59.72;44.00;;;18.40;95.90;;;;;;4856776;29;20067;-86
2021/09/15 07:11:30;;;;;;;56.83;42.57;;;18.40;96.00;;;;;;5111247;23;20526;-86
2021/09/15 07:14:03;;;;;;;61.00;43.65;;;18.40;96.00;;;;;;4915131;29;20048;-86
2021/09/15 07:16:30;;;;;;;61.35;44.65;;;18.40;96.00;;;;;;4897638;29;20049;-86
2021/09/15 07:18:55;;;;;;;67.43;48.58;;;18.50;96.00;;;;;;4863078;29;20383;-87
2021/09/15 07:21:21;;;;;;;60.88;43.33;;;18.50;96.30;;;;;;4867053;29;20131;-88
2021/09/15 07:23:55;;;;;;;59.53;43.45;;;18.50;96.20;;;;;;4862152;29;20053;-86
2021/09/15 07:26:27;;;;;;;53.05;40.63;;;18.50;96.10;;;;;;4864819;29;20053;-84
2021/09/15 07:28:53;;;;;;;88.55;56.75;;;18.50;95.70;;;;;;4872357;29;20053;-84
2021/09/15 07:31:44;;;;;;;79.72;54.20;;;18.50;96.20;;;;;;4898620;29;20493;-84
2021/09/15 07:34:09;;;;;;;85.80;56.08;;;18.50;96.40;;;;;;4881282;29;20049;-84
2021/09/15 07:36:43;;;;;;;79.30;52.47;;;18.60;96.70;;;;;;4899966;29;20489;-84
2021/09/15 07:39:30;;;;;;;70.50;47.38;;;18.60;96.70;;;;;;4881169;29;20084;-84
2021/09/15 07:45:46;;;;;;;;;;;18.70;96.30;;;;;;4872914;29;20041;-83
2021/09/15 07:48:43;;;;;;;81.03;51.90;;;18.60;96.60;;;;;;4883299;29;19923;-84
2021/09/15 07:51:20;;;;;;;59.53;44.03;;;18.70;96.50;;;;;;4879675;29;20455;-82
2021/09/15 07:53:46;;;;;;;77.35;50.97;;;18.70;96.30;;;;;;4861978;29;20129;-82
2021/09/15 07:56:20;;;;;;;71.75;49.97;;;18.80;96.40;;;;;;4878932;29;20127;-82
2021/09/15 07:59:08;;;;;;;68.43;47.50;;;18.80;96.50;;;;;;4882403;29;20057;-82
2021/09/15 08:01:33;;;;;;;63.17;46.03;;;18.80;96.40;;;;;;4881304;29;20057;-83
2021/09/15 08:03:59;;;;;;;80.22;53.78;;;18.80;96.20;;;;;;4862479;29;20052;-82
2021/09/15 08:06:24;;;;;;;92.72;56.58;;;18.80;96.40;;;;;;4888169;29;20045;-82
2021/09/15 08:08:50;;;;;;;85.30;53.10;;;18.80;96.70;;;;;;4899738;29;20507;-82
2021/09/15 08:11:20;;;;;;;85.00;53.67;;;18.90;96.90;;;;;;4881073;29;20060;-82
2021/09/15 08:13:45;;;;;;;94.45;58.08;;;18.90;96.90;;;;;;4864070;29;20045;-83
2021/09/15 08:16:24;;;;;;;85.57;55.92;;;18.90;97.00;;;;;;4893715;29;20045;-83
2021/09/15 08:19:02;;;;;;;88.50;54.10;;;18.90;97.00;;;;;;4866555;29;20072;-82
2021/09/15 08:21:34;;;;;;;86.45;54.33;;;18.90;97.00;;;;;;4867627;29;20041;-83
2021/09/15 08:24:00;;;;;;;82.85;53.03;;;18.90;97.00;;;;;;4876078;29;20053;-83
2021/09/15 08:26:39;;;;;;;100.88;58.17;;;19.00;97.10;;;;;;4899364;29;20160;-84
2021/09/15 08:29:05;;;;;;;87.88;54.17;;;18.90;97.20;;;;;;4886449;29;20564;-85
2021/09/15 08:31:34;;;;;;;78.65;49.40;;;19.00;97.20;;;;;;4865239;29;20439;-84
2021/09/15 08:34:03;;;;;;;95.78;54.70;;;19.00;97.10;;;;;;4861005;29;20505;-84
2021/09/15 08:36:35;;;;;;;90.20;55.65;;;19.10;97.30;;;;;;4865452;29;20041;-84
2021/09/15 08:39:09;;;;;;;92.38;55.92;;;19.10;97.40;;;;;;4881387;29;20085;-85
2021/09/15 08:41:46;;;;;;;82.38;53.10;;;19.10;97.60;;;;;;4880467;29;20048;-84
2021/09/15 08:44:12;;;;;;;79.15;51.13;;;19.10;97.70;;;;;;4893040;29;20120;-84
2021/09/15 08:47:20;;;;;;;83.88;53.38;;;19.20;97.50;;;;;;4867396;29;20082;-84
2021/09/15 08:57:14;;;;;;;84.13;51.88;;;19.20;97.50;;;;;;4862672;29;20060;-84
2021/09/15 09:06:56;;;;;;;73.97;49.80;;;19.40;97.20;;;;;;4858208;29;20052;-84
2021/09/15 09:09:28;;;;;;;67.72;47.17;;;19.40;97.20;;;;;;4863419;29;20064;-83
2021/09/15 09:12:00;;;;;;;77.55;50.55;;;19.40;97.10;;;;;;4881898;29;20151;-84
2021/09/15 09:14:32;;;;;;;72.50;49.83;;;19.50;97.30;;;;;;4872707;29;21130;-83
2021/09/15 09:17:04;;;;;;;66.45;47.00;;;19.50;97.20;;;;;;4888342;29;20482;-83
2021/09/15 09:19:30;;;;;;;69.88;48.88;;;19.60;97.10;;;;;;4878741;29;20052;-84
2021/09/15 09:21:56;;;;;;;63.28;45.53;;;19.60;97.20;;;;;;4897755;29;20382;-84
2021/09/15 09:24:26;;;;;;;74.90;51.08;;;19.60;96.80;;;;;;4898710;29;20052;-84
2021/09/15 09:27:02;;;;;;;69.78;48.25;;;19.70;97.00;;;;;;4869828;29;20073;-83
2021/09/15 09:29:46;;;;;;;65.15;46.17;;;19.80;97.00;;;;;;4860896;29;20497;-83
2021/09/15 09:37:21;;;;;;;60.28;44.90;;;19.80;96.80;;;;;;4888961;23;20113;-82
2021/09/15 09:39:55;;;;;;;;;;;19.90;96.80;;;;;;4875354;29;20072;-83
2021/09/15 09:43:14;;;;;;;58.63;42.60;;;19.90;96.80;;;;;;4879848;29;19972;-84
2021/09/15 09:53:26;;;;;;;53.70;38.88;;;20.10;96.30;;;;;;4802041;29;20136;-84
2021/09/15 09:55:59;;;;;;;50.38;39.10;;;20.00;96.00;;;;;;4865309;29;20049;-84
2021/09/15 10:12:56;;;;;;;;;;;;;;;;;;;;;
2021/09/15 10:16:29;;;;;;;;;;;;;;;;;;;;;
2021/09/15 10:30:10;;;;;;;48.90;36.75;;;20.20;95.60;;;;;;4837458;29;20064;-86
2021/09/15 10:32:44;;;;;;;46.53;36.88;;;20.30;95.50;;;;;;4836590;29;20093;-86
2021/09/15 10:35:10;;;;;;;45.60;35.47;;;20.30;95.60;;;;;;4879340;29;20131;-86
2021/09/15 10:37:39;;;;;;;46.28;36.45;;;20.30;95.50;;;;;;4877518;29;20470;-86
2021/09/15 10:40:14;;;;;;;43.88;34.42;;;20.40;95.40;;;;;;4859411;29;20057;-85
2021/09/15 10:42:58;;;;;;;43.95;35.55;;;20.40;95.50;;;;;;4839199;29;20419;-85
2021/09/15 10:46:26;;;;;;;;;;;;;;;;;;;;;
2021/09/15 10:49:34;;;;;;;45.33;34.58;;;20.50;95.00;;;;;;4862974;29;20057;-86
2021/09/15 10:52:16;;;;;;;44.08;33.33;;;20.40;95.00;;;;;;4861201;29;20093;-86
2021/09/15 10:55:39;;;;;;;43.40;33.25;;;20.40;94.90;;;;;;4861120;29;20096;-86
2021/09/15 11:09:15;;;;;;;45.22;33.05;;;20.30;94.50;;;;;;4849665;29;20373;-85
2021/09/15 11:11:50;;;;;;;44.83;34.00;;;20.30;94.60;;;;;;4857027;29;20054;-85
2021/09/15 11:14:19;;;;;;;42.97;33.00;;;20.30;94.60;;;;;;4859915;29;20061;-85
2021/09/15 11:16:47;;;;;;;43.65;34.15;;;20.30;94.60;;;;;;4846296;29;20061;-85
2021/09/15 11:19:18;;;;;;;45.65;34.10;;;20.30;94.70;;;;;;4833233;29;20094;-85
2021/09/15 11:21:47;;;;;;;46.42;34.70;;;20.30;94.90;;;;;;4862042;29;20490;-85
2021/09/15 11:24:18;;;;;;;48.70;34.78;;;20.30;94.80;;;;;;4863551;29;20517;-86
2021/09/15 11:26:45;;;;;;;47.80;35.10;;;20.40;94.80;;;;;;4862632;29;20049;-86
2021/09/15 11:29:42;;;;;;;47.15;34.53;;;20.40;94.90;;;;;;4862975;29;20144;-92
2021/09/15 11:32:54;;;;;;;48.72;34.53;;;20.40;94.70;;;;;;4883970;29;20045;-93
2021/09/15 11:39:06;;;;;;;43.80;33.55;;;20.50;94.60;;;;;;4910676;23;20131;-92
2021/09/15 11:41:32;;;;;;;42.05;32.88;;;20.50;94.60;;;;;;4880229;29;20053;-86
2021/09/15 11:43:59;;;;;;;45.15;33.28;;;20.60;94.60;;;;;;4865565;29;20048;-87
2021/09/15 11:46:43;;;;;;;41.65;31.90;;;20.60;94.50;;;;;;4866023;29;20140;-86
2021/09/15 11:49:09;;;;;;;41.20;30.00;;;20.70;94.30;;;;;;4865612;29;20466;-84
2021/09/15 11:51:42;;;;;;;38.78;30.20;;;20.80;94.30;;;;;;4865162;29;20120;-84
2021/09/15 11:54:11;;;;;;;36.88;26.85;;;20.90;94.40;;;;;;4864864;29;20477;-85
2021/09/15 11:56:51;;;;;;;36.42;27.50;;;20.90;94.20;;;;;;4864425;29;20057;-85
2021/09/15 11:59:22;;;;;;;31.83;24.30;;;21.00;93.60;;;;;;4881066;29;20033;-85
2021/09/15 12:01:49;;;;;;;31.27;23.42;;;21.00;93.30;;;;;;4864913;29;20053;-84
2021/09/15 12:04:20;;;;;;;32.22;22.15;;;21.10;93.00;;;;;;4881477;29;20139;-85
2021/09/15 12:06:47;;;;;;;29.17;22.45;;;21.10;92.60;;;;;;4865846;29;20057;-88
2021/09/15 12:09:14;;;;;;;30.40;21.85;;;21.10;92.50;;;;;;4881789;29;20056;-85
2021/09/15 12:11:40;;;;;;;28.27;22.42;;;21.20;93.00;;;;;;4879800;29;20056;-87
2021/09/15 12:14:09;;;;;;;32.13;23.67;;;21.20;92.70;;;;;;4865736;29;20052;-85
2021/09/15 12:16:36;;;;;;;33.47;23.45;;;21.30;92.40;;;;;;4870183;29;20104;-85
2021/09/15 12:19:12;;;;;;;30.77;22.60;;;21.40;92.30;;;;;;4865943;29;20070;-87
2021/09/15 12:21:43;;;;;;;31.27;23.25;;;21.50;92.20;;;;;;4863554;29;20101;-85
2021/09/15 12:24:09;;;;;;;31.25;23.10;;;21.50;92.20;;;;;;4881166;29;20045;-84
2021/09/15 12:26:35;;;;;;;34.67;24.90;;;21.50;91.90;;;;;;4880834;29;20067;-84
2021/09/15 12:29:13;;;;;;;35.70;27.27;;;21.50;91.80;;;;;;4881507;29;20045;-84
2021/09/15 12:31:46;;;;;;;34.33;26.73;;;21.60;91.70;;;;;;4863070;29;20053;-84
2021/09/15 12:34:15;;;;;;;37.97;26.50;;;21.60;91.90;;;;;;4881165;29;20496;-85
2021/09/15 12:36:41;;;;;;;31.90;25.63;;;21.60;91.80;;;;;;4859852;29;20128;-85
2021/09/15 12:39:12;;;;;;;32.45;25.92;;;21.60;91.70;;;;;;4880398;29;20135;-82
2021/09/15 12:41:59;;;;;;;32.60;25.88;;;21.70;91.60;;;;;;4881380;29;20493;-86
2021/09/15 12:44:34;;;;;;;33.60;25.13;;;21.70;91.30;;;;;;4879976;29;20064;-84
2021/09/15 12:47:05;;;;;;;29.73;24.80;;;21.70;91.30;;;;;;4856775;29;20055;-84
2021/09/15 12:49:41;;;;;;;29.50;22.83;;;21.70;91.30;;;;;;4878695;29;20172;-85
2021/09/15 12:52:18;;;;;;;30.05;23.20;;;21.70;91.00;;;;;;4880503;29;20049;-84
2021/09/15 12:54:52;;;;;;;30.55;23.40;;;21.70;90.90;;;;;;4875952;29;20137;-85
2021/09/15 12:57:29;;;;;;;28.73;21.33;;;21.70;91.00;;;;;;4851759;29;20051;-83
2021/09/15 13:00:22;;;;;;;26.73;21.17;;;21.70;91.00;;;;;;4856758;29;20063;-84
2021/09/15 13:02:55;;;;;;;26.88;19.80;;;21.70;90.90;;;;;;4880777;29;20087;-86
2021/09/15 13:05:22;;;;;;;23.50;18.25;;;21.70;90.80;;;;;;4879445;29;20112;-83
2021/09/15 13:07:50;;;;;;;23.73;18.17;;;21.80;90.80;;;;;;4862376;29;20042;-82
2021/09/15 13:10:19;;;;;;;22.38;18.10;;;21.80;90.70;;;;;;4852565;29;20049;-84
2021/09/15 13:12:47;;;;;;;22.33;17.60;;;21.80;90.70;;;;;;4860868;29;20503;-84
2021/09/15 13:22:23;;;;;;;17.20;15.27;;;21.80;90.20;;;;;;4794367;29;20058;-84
2021/09/15 13:24:49;;;;;;;18.35;14.32;;;21.80;90.10;;;;;;4863531;29;20078;-84
2021/09/15 13:27:18;;;;;;;17.98;14.93;;;21.80;89.90;;;;;;4860640;29;20049;-84
2021/09/15 13:34:21;;;;;;;15.73;13.65;;;21.80;89.40;;;;;;4785597;30;20055;-84
2021/09/15 13:36:50;;;;;;;18.10;15.35;;;21.70;90.00;;;;;;4800361;29;20412;-84
2021/09/15 13:39:15;;;;;;;17.08;14.88;;;21.70;89.70;;;;;;4803817;29;20107;-84
2021/09/15 13:41:46;;;;;;;18.00;14.80;;;21.70;89.10;;;;;;4797067;29;20047;-84
2021/09/15 14:15:24;;;;;;;10.83;8.33;;;21.30;87.70;;;;;;4879806;29;20044;-84
2021/09/15 14:17:54;;;;;;;8.43;6.38;;;21.30;88.70;;;;;;4865692;29;20053;-86
2021/09/15 14:20:37;;;;;;;9.75;7.57;;;21.30;87.80;;;;;;4878915;29;20071;-85
2021/09/15 14:38:35;;;;;;;10.77;6.25;;;21.40;86.60;;;;;;4872456;29;20446;-87
2021/09/15 14:41:34;;;;;;;9.00;5.85;;;21.40;86.90;;;;;;4806946;29;20129;-86
2021/09/15 14:44:03;;;;;;;7.93;5.82;;;21.40;86.70;;;;;;4859375;29;20144;-87
2021/09/15 15:11:40;;;;;;;14.32;9.63;;;21.40;88.10;;;;;;5273525;23;20073;31
2021/09/15 15:14:07;;;;;;;16.50;11.93;;;21.50;87.60;;;;;;4841954;29;20049;-85
2021/09/15 15:20:14;;;;;;;13.25;11.30;;;21.50;87.70;;;;;;4826917;29;20046;-84
2021/09/15 15:22:54;;;;;;;15.32;12.60;;;21.40;88.50;;;;;;4818775;29;20122;-83
2021/09/15 15:25:19;;;;;;;16.75;8.75;;;21.40;88.30;;;;;;4844843;29;20140;-83
2021/09/15 15:27:46;;;;;;;13.00;6.55;;;21.40;88.40;;;;;;4826851;29;20128;-83
2021/09/15 15:30:18;;;;;;;10.65;7.30;;;21.30;88.00;;;;;;4827748;29;20496;-84
2021/09/15 15:32:45;;;;;;;8.40;5.78;;;21.30;88.80;;;;;;4842988;29;20165;-86
2021/09/15 15:35:14;;;;;;;11.10;7.35;;;21.30;88.90;;;;;;4828196;29;20078;-90
2021/09/15 15:37:47;;;;;;;9.77;4.40;;;21.30;90.10;;;;;;4828764;29;20037;-88
2021/09/15 15:40:13;;;;;;;;;;;21.20;88.70;;;;;;4829369;29;20049;-86
2021/09/15 15:42:44;;;;;;;10.40;4.28;;;21.10;87.80;;;;;;4827939;29;19928;-86
2021/09/15 15:45:41;;;;;;;9.15;4.63;;;21.20;89.80;;;;;;4845797;29;20170;-91
2021/09/15 15:48:38;;;;;;;7.93;5.00;;;21.20;89.80;;;;;;4761987;30;20627;-90
2021/09/15 15:51:47;;;;;;;7.90;3.88;;;21.20;90.20;;;;;;4762555;30;20050;-86
2021/09/15 15:54:30;;;;;;;9.30;4.10;;;21.20;90.20;;;;;;4767961;29;20059;-87
2021/09/15 15:57:29;;;;;;;8.02;2.85;;;21.20;90.10;;;;;;4764008;30;20047;-87
2021/09/15 16:27:21;;;;;;;6.20;2.03;;;20.90;89.40;;;;;;4877463;29;20093;-87
2021/09/15 16:51:34;;;;;;;8.20;1.83;;;20.70;90.10;;;;;;4820438;29;20079;-87
2021/09/15 16:54:12;;;;;;;7.13;1.90;;;20.70;89.00;;;;;;4860940;29;20132;-86
2021/09/15 16:56:38;;;;;;;6.85;1.75;;;20.60;90.30;;;;;;4880343;29;20041;-86
2021/09/15 16:59:09;;;;;;;6.45;1.95;;;20.70;90.00;;;;;;4878899;29;20172;-86
2021/09/15 17:01:38;;;;;;;7.97;2.10;;;20.60;90.40;;;;;;4879650;29;20041;-86
2021/09/15 17:04:24;;;;;;;6.07;2.10;;;20.60;90.60;;;;;;4863761;29;20135;-85
2021/09/15 17:06:51;;;;;;;7.63;1.75;;;20.60;90.90;;;;;;4862998;29;20193;-86
2021/09/15 17:09:16;;;;;;;8.52;1.80;;;20.60;90.60;;;;;;4865251;29;20525;-86
2021/09/15 17:11:45;;;;;;;4.97;1.38;;;20.60;89.80;;;;;;4874776;29;20049;-87
2021/09/15 17:14:10;;;;;;;6.20;2.10;;;20.50;89.40;;;;;;4878054;29;20064;-86
2021/09/15 17:16:36;;;;;;;3.42;1.80;;;20.50;90.40;;;;;;4879557;29;20044;-86
2021/09/15 17:19:03;;;;;;;6.82;1.60;;;20.50;91.20;;;;;;4862322;29;20044;-86
2021/09/15 17:21:29;;;;;;;7.15;2.00;;;20.50;90.60;;;;;;4879109;29;20053;-87
2021/09/15 17:23:54;;;;;;;5.43;1.67;;;20.40;90.70;;;;;;4861723;29;20051;-86
2021/09/15 17:26:20;;;;;;;6.72;2.08;;;20.50;90.90;;;;;;4863725;29;20409;-85
2021/09/15 17:28:46;;;;;;;6.88;1.52;;;20.50;91.20;;;;;;4867972;29;20045;-86
2021/09/15 17:31:11;;;;;;;5.03;1.40;;;20.50;90.90;;;;;;4858751;29;20074;-86
2021/09/15 17:33:37;;;;;;;5.20;1.80;;;20.50;90.30;;;;;;4863269;29;20055;-86
2021/09/15 17:36:02;;;;;;;7.47;1.45;;;20.40;90.80;;;;;;4857711;29;20053;-86
2021/09/15 17:38:28;;;;;;;5.65;1.52;;;20.40;90.50;;;;;;4863020;29;20060;-86
2021/09/15 17:40:54;;;;;;;5.35;1.58;;;20.40;90.20;;;;;;4862723;29;20053;-86
2021/09/15 17:43:19;;;;;;;5.95;1.83;;;20.30;90.50;;;;;;4869908;29;20052;-86
2021/09/15 17:45:45;;;;;;;5.47;1.55;;;20.30;90.00;;;;;;4860706;29;20342;-86
2021/09/15 17:48:12;;;;;;;5.93;1.50;;;20.20;90.50;;;;;;4854214;29;20053;-86
2021/09/15 17:50:38;;;;;;;7.13;1.60;;;20.20;90.10;;;;;;4860114;29;20137;-86
2021/09/15 17:53:06;;;;;;;7.18;1.35;;;20.20;89.90;;;;;;4856528;29;20066;-87